METAR Data
IDs: Format: Raw Decoded Include TAF

Data at: 1020 UTC 26 Sep 2018

KPWM 260951Z 20005KT 1/2SM FG VV002 18/18 A3002 RMK AO2 SLP165 T01780178
KPWM 260851Z 20007KT 1/2SM FG VV002 18/18 A3002 RMK AO2 SLP166 T01780178 58023
KPWM 260841Z 20009G15KT 1 1/4SM BR OVC001 18/18 A3002 RMK AO2 T01780178
KPWM 260833Z 21006G18KT 1 1/2SM BR OVC002 18/18 A3003 RMK AO2 T01780178
KPWM 260821Z 20007G16KT 2 1/2SM BR OVC002 18/18 A3003 RMK AO2 T01780178
KPWM 260751Z 20007KT 6SM BR OVC003 18/18 A3004 RMK AO2 SLP173 T01780178
KPWM 260651Z 20010G16KT 7SM OVC003 18/18 A3007 RMK AO2 SLP183 T01780178
KPWM 260551Z 19010G16KT 4SM BR OVC002 17/17 A3009 RMK AO2 SLP189 60127 T01720172 10183 20161 56029
KPWM 260451Z 19012G21KT 5SM BR OVC004 18/17 A3011 RMK AO2 PK WND 21026/0355 RAE15 SLP196 P0002 T01780172 401830050
KPWM 260442Z 19010G18KT 6SM BR OVC004 18/18 A3012 RMK AO2 PK WND 21026/0355 RAE15 P0002 T01780178
KPWM 260351Z 19015G23KT 3SM RA BR OVC005 18/17 A3014 RMK AO2 SLP206 LAST P0024 T01780172
KPWM 260251Z 19010G19KT 3SM RA BR OVC006 17/17 A3018 RMK AO2 PK WND 16028/0233 SLP218 P0018 60101 T01720167 56032
KPWM 260203Z 21011KT 3SM -RA BR BKN007 OVC012 17/17 A3021 RMK AO2 P0008 T01720167
KPWM 260159Z 19011G20KT 2SM RA BR SCT005 OVC012 17/17 A3021 RMK AO2 P0007 T01670167
KPWM 260151Z 18014G20KT 1 1/2SM +RA BR BKN007 OVC010 17/17 A3021 RMK AO2 SLP229 P0032 T01670167
KPWM 260122Z 19010G15KT 2 1/2SM RA BR OVC005 17/16 A3022 RMK AO2 P0012 T01670161
KPWM 260115Z VRB05KT 3SM RA BR OVC005 17/16 A3022 RMK AO2 P0010 T01670161
KPWM 260051Z 18009G16KT 2SM +RA BR BKN006 OVC012 16/16 A3024 RMK AO2 SLP239 P0051 T01610156
KPWM 252351Z 12011G19KT 2 1/2SM +RA BR BKN007 OVC012 16/15 A3027 RMK AO2 SLP250 P0023 60046 T01560150 10161 20150 58019
KPWM 252308Z 13011G19KT 2 1/2SM RA BR BKN007 OVC013 16/15 A3031 RMK AO2 P0004 T01560150
KPWM 252300Z 13012G19KT 2 1/2SM RA BR SCT008 BKN011 OVC016 16/15 A3032 RMK AO2 P0001 T01560150
KPWM 252253Z 13012G21KT 2 1/2SM -RA BR BKN008 BKN011 OVC022 16/15 A3032 RMK AO2 P0000 T01560150
KPWM 252251Z 13016G21KT 2 1/2SM -RA BR FEW006 BKN011 OVC027 16/15 A3032 RMK AO2 SLP268 P0007 T01560150
KPWM 252243Z 14013G22KT 2 1/2SM RA BR SCT009 BKN017 OVC029 16/14 A3032 RMK AO2 P0006 T01560144
KPWM 252151Z 13014G21KT 3SM RA BR FEW009 BKN029 OVC036 15/14 A3033 RMK AO2 SLP270 P0006 T01500144
KPWM 252051Z 13014G22KT 4SM RA BR SCT032 SCT043 OVC095 15/14 A3037 RMK AO2 SLP283 P0007 60010 T01500144 57037
KPWM 251951Z 13010G18KT 8SM -RA SCT042 SCT080 OVC100 16/14 A3041 RMK AO2 SLP298 P0002 T01560139
KPWM 251858Z 13012G19KT 10SM -RA FEW033 SCT080 OVC110 16/14 A3043 RMK AO2 P0000 T01560139
KPWM 251851Z 13010G19KT 10SM -RA BKN024 BKN035 OVC080 16/14 A3044 RMK AO2 SLP306 P0001 T01560139
KPWM 251751Z 13007G16KT 10SM -RA BKN024 BKN037 OVC080 16/14 A3048 RMK AO2 SLP321 P0002 60002 T01560139 10156 20078 58027
KPWM 251651Z 14006G15KT 10SM -RA OVC023 16/13 A3051 RMK AO2 RAB41 SLP332 P0000 T01560128
KPWM 251551Z VRB03KT 10SM OVC024 15/11 A3053 RMK AO2 SLP339 T01500111
KPWM 251451Z VRB05KT 10SM OVC029 12/08 A3056 RMK AO2 SLP347 T01170078 56017
KPWM 251351Z 11006KT 10SM FEW032 FEW150 OVC200 10/07 A3057 RMK AO2 SLP353 T01000067
KPWM 251251Z VRB04KT 10SM SCT032 OVC150 09/06 A3058 RMK AO2 SLP357 T00890056
KPWM 251151Z VRB04KT 10SM FEW030 SCT150 OVC200 08/04 A3061 RMK AO2 SLP364 T00780044 10078 20050 50002
KPWM 251051Z VRB04KT 10SM FEW030 FEW150 OVC200 07/03 A3061 RMK AO2 SLP365 T00670033
KPWM 250951Z VRB04KT 10SM FEW150 OVC200 06/03 A3060 RMK AO2 SLP362 T00610033
KPWM 250851Z VRB04KT 10SM OVC200 06/03 A3060 RMK AO2 SLP362 MOON DMLY VSBL T00610028 58014
KPWM 250751Z AUTO 31003KT 10SM CLR 06/03 A3061 RMK AO2 SLP367 T00560033
KPWM 250651Z AUTO VRB04KT 10SM CLR 06/03 A3063 RMK AO2 SLP373 T00560033
KPWM 250551Z AUTO VRB03KT 10SM CLR 06/04 A3064 RMK AO2 SLP376 T00560039 10094 20050 58004
KPWM 250451Z AUTO 28004KT 10SM CLR 06/03 A3065 RMK AO2 SLP377 T00610033 401280056
KPWM 250351Z 29004KT 10SM CLR 06/04 A3066 RMK AO2 SLP382 LAST T00560039
KPWM 250251Z 00000KT 10SM CLR 07/02 A3065 RMK AO2 SLP380 T00720022 50002
KPWM 250151Z 13003KT 10SM CLR 08/02 A3067 RMK AO2 SLP385 T00830022
KPWM 250051Z 00000KT 10SM CLR 08/03 A3066 RMK AO2 SLP383 T00830033
KPWM 242351Z 00000KT 10SM CLR 08/03 A3065 RMK AO2 SLP378 T00830033 10128 20083 53010
KPWM 242251Z 00000KT 10SM CLR 10/02 A3064 RMK AO2 SLP376 T01000022